Terminal Aerodrome Forecast
Issued by NWS Knoxville/Tri Cities, TN

Home | Current Version | Previous Version | Text Only | Print | Product List | Glossary On
Versions: 1 2 3 4 5 6 7 8 9 10 11 12 13 14
000
FTUS44 KMRX 172324
TAFCHA
TAF
KCHA 172324Z 1800/1824 24008KT P6SM SCT040
     FM180300 22004KT P6SM SCT050 BKN250
     FM181000 VRB04KT P6SM VCSH SCT030 OVC050
     FM181600 26008KT P6SM SCT050 BKN150
     FM182000 29010KT P6SM SCT070=

USA.gov is the U.S. government's official web portal to all federal, state and local government web resources and services.